sensor_id;sensor_type;location;lat;lon;timestamp;pressure;altitude;pressure_sealevel;temperature;humidity
17362;BME280;8798;51.938;4.348;2023-01-26T00:01:18;102809.81;;;3.36;81.97
17362;BME280;8798;51.938;4.348;2023-01-26T00:03:48;102817.78;;;3.36;81.85
17362;BME280;8798;51.938;4.348;2023-01-26T00:06:17;102810.69;;;3.37;82.56
17362;BME280;8798;51.938;4.348;2023-01-26T00:08:47;102804.50;;;3.36;82.98
17362;BME280;8798;51.938;4.348;2023-01-26T00:11:17;102798.38;;;3.34;82.87
17362;BME280;8798;51.938;4.348;2023-01-26T00:13:47;102792.25;;;3.32;83.21
17362;BME280;8798;51.938;4.348;2023-01-26T00:16:15;102770.25;;;3.29;83.25
17362;BME280;8798;51.938;4.348;2023-01-26T00:18:43;102765.91;;;3.26;82.90
17362;BME280;8798;51.938;4.348;2023-01-26T00:21:15;102771.19;;;3.28;83.10
17362;BME280;8798;51.938;4.348;2023-01-26T00:23:44;102784.34;;;3.31;82.97
17362;BME280;8798;51.938;4.348;2023-01-26T00:26:13;102790.50;;;3.31;83.81
17362;BME280;8798;51.938;4.348;2023-01-26T00:28:42;102786.94;;;3.32;83.45
17362;BME280;8798;51.938;4.348;2023-01-26T00:31:12;102790.41;;;3.34;83.80
17362;BME280;8798;51.938;4.348;2023-01-26T00:33:40;102790.41;;;3.34;84.08
17362;BME280;8798;51.938;4.348;2023-01-26T00:36:08;102794.75;;;3.37;84.28
17362;BME280;8798;51.938;4.348;2023-01-26T00:38:38;102799.13;;;3.38;84.19
17362;BME280;8798;51.938;4.348;2023-01-26T00:41:06;102811.44;;;3.40;84.04
17362;BME280;8798;51.938;4.348;2023-01-26T00:43:34;102814.94;;;3.41;84.62
17362;BME280;8798;51.938;4.348;2023-01-26T00:46:01;102812.25;;;3.42;84.84
17362;BME280;8798;51.938;4.348;2023-01-26T00:48:29;102811.31;;;3.43;84.78
17362;BME280;8798;51.938;4.348;2023-01-26T00:50:57;102811.31;;;3.43;84.80
17362;BME280;8798;51.938;4.348;2023-01-26T00:53:25;102811.31;;;3.43;85.19
17362;BME280;8798;51.938;4.348;2023-01-26T00:55:54;102805.13;;;3.43;85.17
17362;BME280;8798;51.938;4.348;2023-01-26T00:58:23;102807.88;;;3.41;85.31
17362;BME280;8798;51.938;4.348;2023-01-26T01:00:52;102802.47;;;3.43;85.14
17362;BME280;8798;51.938;4.348;2023-01-26T01:03:20;102804.22;;;3.44;85.25
17362;BME280;8798;51.938;4.348;2023-01-26T01:05:47;102812.97;;;3.46;85.58
17362;BME280;8798;51.938;4.348;2023-01-26T01:08:15;102809.41;;;3.47;85.63
17362;BME280;8798;51.938;4.348;2023-01-26T01:10:43;102823.44;;;3.51;85.81
17362;BME280;8798;51.938;4.348;2023-01-26T01:13:12;102834.88;;;3.53;85.86
17362;BME280;8798;51.938;4.348;2023-01-26T01:15:40;102829.56;;;3.53;85.79
17362;BME280;8798;51.938;4.348;2023-01-26T01:18:08;102833.91;;;3.55;85.72
17362;BME280;8798;51.938;4.348;2023-01-26T01:20:39;102836.56;;;3.55;85.92
17362;BME280;8798;51.938;4.348;2023-01-26T01:23:07;102841.75;;;3.58;86.21
17362;BME280;8798;51.938;4.348;2023-01-26T01:25:34;102845.22;;;3.60;86.31
17362;BME280;8798;51.938;4.348;2023-01-26T01:28:02;102844.38;;;3.60;86.11
17362;BME280;8798;51.938;4.348;2023-01-26T01:30:32;102836.44;;;3.58;86.63
17362;BME280;8798;51.938;4.348;2023-01-26T01:32:59;102836.38;;;3.60;86.43
17362;BME280;8798;51.938;4.348;2023-01-26T01:35:27;102848.69;;;3.62;86.17
17362;BME280;8798;51.938;4.348;2023-01-26T01:37:55;102857.44;;;3.66;86.79
17362;BME280;8798;51.938;4.348;2023-01-26T01:40:23;102870.59;;;3.69;86.48
17362;BME280;8798;51.938;4.348;2023-01-26T01:42:51;102875.78;;;3.72;86.52
17362;BME280;8798;51.938;4.348;2023-01-26T01:45:39;102880.16;;;3.73;86.50
17362;BME280;8798;51.938;4.348;2023-01-26T01:48:12;102874.84;;;3.73;87.16
17362;BME280;8798;51.938;4.348;2023-01-26T01:50:42;102867.81;;;3.72;87.05
17362;BME280;8798;51.938;4.348;2023-01-26T01:53:14;102868.63;;;3.74;86.73
17362;BME280;8798;51.938;4.348;2023-01-26T01:55:44;102869.50;;;3.75;87.01
17362;BME280;8798;51.938;4.348;2023-01-26T01:58:13;102865.13;;;3.74;87.35
17362;BME280;8798;51.938;4.348;2023-01-26T02:00:43;102854.50;;;3.74;87.38
17362;BME280;8798;51.938;4.348;2023-01-26T02:03:11;102852.81;;;3.71;87.29
17362;BME280;8798;51.938;4.348;2023-01-26T02:05:47;102835.97;;;3.71;87.24
17362;BME280;8798;51.938;4.348;2023-01-26T02:08:17;102836.91;;;3.70;87.73
17362;BME280;8798;51.938;4.348;2023-01-26T02:10:48;102830.66;;;3.71;87.48
17362;BME280;8798;51.938;4.348;2023-01-26T02:13:17;102822.78;;;3.69;87.41
17362;BME280;8798;51.938;4.348;2023-01-26T02:15:48;102821.03;;;3.68;87.27
17362;BME280;8798;51.938;4.348;2023-01-26T02:18:16;102814.84;;;3.67;87.49
17362;BME280;8798;51.938;4.348;2023-01-26T02:20:46;102811.31;;;3.67;87.84
17362;BME280;8798;51.938;4.348;2023-01-26T02:23:24;102822.66;;;3.72;87.30
17362;BME280;8798;51.938;4.348;2023-01-26T02:26:05;102831.44;;;3.74;87.73
17362;BME280;8798;51.938;4.348;2023-01-26T02:28:33;102847.25;;;3.77;88.03
17362;BME280;8798;51.938;4.348;2023-01-26T02:31:02;102847.25;;;3.77;88.08
17362;BME280;8798;51.938;4.348;2023-01-26T02:33:31;102859.50;;;3.81;88.09
17362;BME280;8798;51.938;4.348;2023-01-26T02:35:59;102856.78;;;3.83;88.02
17362;BME280;8798;51.938;4.348;2023-01-26T02:38:35;102862.00;;;3.86;88.30
17362;BME280;8798;51.938;4.348;2023-01-26T02:41:07;102869.84;;;3.89;88.35
17362;BME280;8798;51.938;4.348;2023-01-26T02:43:37;102891.81;;;3.94;88.36
17362;BME280;8798;51.938;4.348;2023-01-26T02:46:05;102896.16;;;3.97;88.37
17362;BME280;8798;51.938;4.348;2023-01-26T02:48:33;102904.06;;;3.98;88.18
17362;BME280;8798;51.938;4.348;2023-01-26T02:51:14;102897.88;;;3.98;88.61
17362;BME280;8798;51.938;4.348;2023-01-26T02:53:42;102897.88;;;3.98;88.18
17362;BME280;8798;51.938;4.348;2023-01-26T02:56:11;102886.38;;;3.97;88.25
17362;BME280;8798;51.938;4.348;2023-01-26T02:58:38;102888.97;;;3.99;88.76
17362;BME280;8798;51.938;4.348;2023-01-26T03:01:06;102885.38;;;4.00;88.53
17362;BME280;8798;51.938;4.348;2023-01-26T03:03:33;102905.66;;;4.02;88.60
17362;BME280;8798;51.938;4.348;2023-01-26T03:06:11;102900.31;;;4.04;88.31
17362;BME280;8798;51.938;4.348;2023-01-26T03:08:40;102894.19;;;4.02;88.88
17362;BME280;8798;51.938;4.348;2023-01-26T03:11:08;102883.53;;;4.02;88.82
17362;BME280;8798;51.938;4.348;2023-01-26T03:13:37;102885.34;;;4.01;88.90
17362;BME280;8798;51.938;4.348;2023-01-26T03:16:06;102875.56;;;4.02;88.61
17362;BME280;8798;51.938;4.348;2023-01-26T03:18:35;102868.53;;;4.01;88.84
17362;BME280;8798;51.938;4.348;2023-01-26T03:21:20;102867.59;;;4.02;88.83
17362;BME280;8798;51.938;4.348;2023-01-26T03:24:09;102863.22;;;4.01;89.39
17362;BME280;8798;51.938;4.348;2023-01-26T03:26:55;102866.66;;;4.03;89.45
17362;BME280;8798;51.938;4.348;2023-01-26T03:29:42;102864.00;;;4.03;88.50
17362;BME280;8798;51.938;4.348;2023-01-26T03:32:10;102868.41;;;4.04;89.22
17362;BME280;8798;51.938;4.348;2023-01-26T03:34:38;102864.81;;;4.05;88.83
17362;BME280;8798;51.938;4.348;2023-01-26T03:37:06;102875.28;;;4.09;89.05
17362;BME280;8798;51.938;4.348;2023-01-26T03:39:34;102882.25;;;4.12;89.08
17362;BME280;8798;51.938;4.348;2023-01-26T03:42:19;102898.09;;;4.15;89.03
17362;BME280;8798;51.938;4.348;2023-01-26T03:45:06;102900.66;;;4.18;89.36
17362;BME280;8798;51.938;4.348;2023-01-26T03:47:52;102903.19;;;4.21;89.25
17362;BME280;8798;51.938;4.348;2023-01-26T03:50:37;102914.63;;;4.23;89.40
17362;BME280;8798;51.938;4.348;2023-01-26T03:53:23;102916.38;;;4.24;89.48
17362;BME280;8798;51.938;4.348;2023-01-26T03:56:09;102919.88;;;4.25;89.67
17362;BME280;8798;51.938;4.348;2023-01-26T03:58:44;102911.84;;;4.26;89.30
17362;BME280;8798;51.938;4.348;2023-01-26T04:01:14;102907.47;;;4.25;89.36
17362;BME280;8798;51.938;4.348;2023-01-26T04:03:46;102900.34;;;4.26;89.63
17362;BME280;8798;51.938;4.348;2023-01-26T04:06:32;102884.53;;;4.23;89.79
17362;BME280;8798;51.938;4.348;2023-01-26T04:09:18;102859.00;;;4.17;89.60
17362;BME280;8798;51.938;4.348;2023-01-26T04:11:46;102857.28;;;4.16;89.29
17362;BME280;8798;51.938;4.348;2023-01-26T04:14:15;102848.38;;;4.17;89.76
17362;BME280;8798;51.938;4.348;2023-01-26T04:17:17;102848.44;;;4.16;89.74
17362;BME280;8798;51.938;4.348;2023-01-26T04:20:03;102845.72;;;4.17;89.68
17362;BME280;8798;51.938;4.348;2023-01-26T04:22:50;102839.53;;;4.17;89.91
17362;BME280;8798;51.938;4.348;2023-01-26T04:25:19;102832.53;;;4.14;89.85
17362;BME280;8798;51.938;4.348;2023-01-26T04:27:47;102821.06;;;4.14;89.86
17362;BME280;8798;51.938;4.348;2023-01-26T04:30:16;102823.72;;;4.14;89.84
17362;BME280;8798;51.938;4.348;2023-01-26T04:32:46;102835.94;;;4.18;90.06
17362;BME280;8798;51.938;4.348;2023-01-26T04:35:13;102842.03;;;4.21;89.78
17362;BME280;8798;51.938;4.348;2023-01-26T04:37:41;102848.97;;;4.25;90.23
17362;BME280;8798;51.938;4.348;2023-01-26T04:40:10;102874.50;;;4.29;90.08
17362;BME280;8798;51.938;4.348;2023-01-26T04:42:38;102883.22;;;4.33;89.94
17362;BME280;8798;51.938;4.348;2023-01-26T04:45:08;102888.47;;;4.35;90.53
17362;BME280;8798;51.938;4.348;2023-01-26T04:47:35;102901.69;;;4.38;90.06
17362;BME280;8798;51.938;4.348;2023-01-26T04:50:05;102897.13;;;4.40;90.43
17362;BME280;8798;51.938;4.348;2023-01-26T04:52:33;102905.94;;;4.42;89.92
17362;BME280;8798;51.938;4.348;2023-01-26T04:55:01;102913.00;;;4.43;90.32
17362;BME280;8798;51.938;4.348;2023-01-26T04:57:29;102916.41;;;4.46;90.44
17362;BME280;8798;51.938;4.348;2023-01-26T04:59:57;102926.09;;;4.47;90.62
17362;BME280;8798;51.938;4.348;2023-01-26T05:02:24;102925.09;;;4.50;90.16
17362;BME280;8798;51.938;4.348;2023-01-26T05:04:52;102911.03;;;4.48;90.46
17362;BME280;8798;51.938;4.348;2023-01-26T05:07:21;102880.25;;;4.41;90.24
17362;BME280;8798;51.938;4.348;2023-01-26T05:09:49;102876.75;;;4.40;90.35
17362;BME280;8798;51.938;4.348;2023-01-26T05:12:17;102867.00;;;4.39;90.84
17362;BME280;8798;51.938;4.348;2023-01-26T05:15:01;102857.34;;;4.37;90.25
17362;BME280;8798;51.938;4.348;2023-01-26T05:17:29;102852.91;;;4.37;90.48
17362;BME280;8798;51.938;4.348;2023-01-26T05:19:57;102840.53;;;4.36;90.54
17362;BME280;8798;51.938;4.348;2023-01-26T05:22:26;102845.81;;;4.38;90.60
17362;BME280;8798;51.938;4.348;2023-01-26T05:24:54;102863.38;;;4.42;90.59
17362;BME280;8798;51.938;4.348;2023-01-26T05:27:22;102872.03;;;4.47;90.62
17362;BME280;8798;51.938;4.348;2023-01-26T05:29:50;102878.19;;;4.47;90.50
17362;BME280;8798;51.938;4.348;2023-01-26T05:32:18;102885.19;;;4.50;90.34
17362;BME280;8798;51.938;4.348;2023-01-26T05:34:47;102892.22;;;4.52;90.78
17362;BME280;8798;51.938;4.348;2023-01-26T05:37:15;102902.66;;;4.57;90.47
17362;BME280;8798;51.938;4.348;2023-01-26T05:39:44;102893.81;;;4.57;90.74
17362;BME280;8798;51.938;4.348;2023-01-26T05:42:12;102896.47;;;4.57;90.50
17362;BME280;8798;51.938;4.348;2023-01-26T05:44:40;102899.09;;;4.58;90.83
17362;BME280;8798;51.938;4.348;2023-01-26T05:47:08;102907.78;;;4.62;90.92
17362;BME280;8798;51.938;4.348;2023-01-26T05:49:36;102922.72;;;4.66;90.56
17362;BME280;8798;51.938;4.348;2023-01-26T05:52:09;102941.22;;;4.69;90.43
17362;BME280;8798;51.938;4.348;2023-01-26T05:54:37;102957.88;;;4.74;90.80
17362;BME280;8798;51.938;4.348;2023-01-26T05:57:07;102962.22;;;4.77;91.45
17362;BME280;8798;51.938;4.348;2023-01-26T05:59:34;102964.75;;;4.80;90.75
17362;BME280;8798;51.938;4.348;2023-01-26T06:02:02;102966.50;;;4.81;90.48
17362;BME280;8798;51.938;4.348;2023-01-26T06:04:30;102979.63;;;4.85;90.84
17362;BME280;8798;51.938;4.348;2023-01-26T06:06:58;102984.00;;;4.86;90.81
17362;BME280;8798;51.938;4.348;2023-01-26T06:09:26;102992.81;;;4.88;91.18
17362;BME280;8798;51.938;4.348;2023-01-26T06:11:54;102990.09;;;4.90;91.01
17362;BME280;8798;51.938;4.348;2023-01-26T06:14:24;102988.22;;;4.92;90.82
17362;BME280;8798;51.938;4.348;2023-01-26T06:16:53;102989.97;;;4.93;90.02
17362;BME280;8798;51.938;4.348;2023-01-26T06:19:22;102999.63;;;4.95;90.68
17362;BME280;8798;51.938;4.348;2023-01-26T06:21:50;102999.63;;;4.95;91.21
17362;BME280;8798;51.938;4.348;2023-01-26T06:24:18;102999.56;;;4.97;90.77
17362;BME280;8798;51.938;4.348;2023-01-26T06:26:46;102999.56;;;4.97;91.44
17362;BME280;8798;51.938;4.348;2023-01-26T06:29:15;102993.31;;;4.98;90.88
17362;BME280;8798;51.938;4.348;2023-01-26T06:31:44;102980.94;;;4.97;91.40
17362;BME280;8798;51.938;4.348;2023-01-26T06:34:12;102978.28;;;4.97;90.93
17362;BME280;8798;51.938;4.348;2023-01-26T06:36:39;102995.91;;;5.00;91.49
17362;BME280;8798;51.938;4.348;2023-01-26T06:39:08;103016.03;;;5.07;90.94
17362;BME280;8798;51.938;4.348;2023-01-26T06:41:37;103037.03;;;5.14;91.40
17362;BME280;8798;51.938;4.348;2023-01-26T06:44:06;103081.91;;;5.25;90.96
17362;BME280;8798;51.938;4.348;2023-01-26T06:46:34;103110.91;;;5.33;90.93
17362;BME280;8798;51.938;4.348;2023-01-26T06:49:04;103138.91;;;5.43;91.80
17362;BME280;8798;51.938;4.348;2023-01-26T06:51:54;103181.06;;;5.55;91.37
17362;BME280;8798;51.938;4.348;2023-01-26T06:54:24;103209.22;;;5.63;90.85
17362;BME280;8798;51.938;4.348;2023-01-26T06:56:53;103235.53;;;5.72;91.20
17362;BME280;8798;51.938;4.348;2023-01-26T06:59:21;103271.56;;;5.82;91.41
17362;BME280;8798;51.938;4.348;2023-01-26T07:01:49;103289.88;;;5.91;91.17
17362;BME280;8798;51.938;4.348;2023-01-26T07:04:18;103318.13;;;5.97;91.69
17362;BME280;8798;51.938;4.348;2023-01-26T07:06:46;103327.69;;;6.02;91.01
17362;BME280;8798;51.938;4.348;2023-01-26T07:09:14;103347.03;;;6.08;90.99
17362;BME280;8798;51.938;4.348;2023-01-26T07:11:42;103354.00;;;6.12;91.58
17362;BME280;8798;51.938;4.348;2023-01-26T07:14:10;103355.69;;;6.14;91.67
17362;BME280;8798;51.938;4.348;2023-01-26T07:16:38;103374.13;;;6.20;91.76
17362;BME280;8798;51.938;4.348;2023-01-26T07:19:06;103379.34;;;6.23;91.55
17362;BME280;8798;51.938;4.348;2023-01-26T07:21:35;103378.41;;;6.24;91.49
17362;BME280;8798;51.938;4.348;2023-01-26T07:24:04;103371.28;;;6.25;91.49
17362;BME280;8798;51.938;4.348;2023-01-26T07:26:33;103367.69;;;6.26;91.48
17362;BME280;8798;51.938;4.348;2023-01-26T07:29:01;103366.75;;;6.27;91.35
17362;BME280;8798;51.938;4.348;2023-01-26T07:31:29;103351.69;;;6.26;91.41
17362;BME280;8798;51.938;4.348;2023-01-26T07:33:56;103340.09;;;6.25;91.05
17362;BME280;8798;51.938;4.348;2023-01-26T07:36:24;103325.97;;;6.23;91.55
17362;BME280;8798;51.938;4.348;2023-01-26T07:38:54;103324.16;;;6.24;91.53
17362;BME280;8798;51.938;4.348;2023-01-26T07:41:22;103305.53;;;6.22;92.20
17362;BME280;8798;51.938;4.348;2023-01-26T07:43:49;103294.00;;;6.22;91.83
17362;BME280;8798;51.938;4.348;2023-01-26T07:46:17;103281.66;;;6.19;91.64
17362;BME280;8798;51.938;4.348;2023-01-26T07:48:45;103266.59;;;6.18;92.31
17362;BME280;8798;51.938;4.348;2023-01-26T07:51:13;103259.50;;;6.17;91.18
17362;BME280;8798;51.938;4.348;2023-01-26T07:53:41;103241.81;;;6.15;91.98
17362;BME280;8798;51.938;4.348;2023-01-26T07:56:12;103230.28;;;6.14;91.92
17362;BME280;8798;51.938;4.348;2023-01-26T07:58:41;103228.56;;;6.13;91.60
17362;BME280;8798;51.938;4.348;2023-01-26T08:01:11;103201.97;;;6.10;91.43
17362;BME280;8798;51.938;4.348;2023-01-26T08:03:39;103181.72;;;6.06;91.53
17362;BME280;8798;51.938;4.348;2023-01-26T08:06:08;103160.47;;;6.03;91.69
17362;BME280;8798;51.938;4.348;2023-01-26T08:08:39;103153.41;;;6.02;91.50
17362;BME280;8798;51.938;4.348;2023-01-26T08:11:09;103141.81;;;6.03;91.71
17362;BME280;8798;51.938;4.348;2023-01-26T08:13:38;103143.69;;;6.01;91.52
17362;BME280;8798;51.938;4.348;2023-01-26T08:16:09;103134.75;;;6.02;92.23
17362;BME280;8798;51.938;4.348;2023-01-26T08:18:38;103126.78;;;6.00;91.43
17362;BME280;8798;51.938;4.348;2023-01-26T08:21:06;103121.47;;;6.00;92.06
17362;BME280;8798;51.938;4.348;2023-01-26T08:23:34;103103.78;;;5.98;91.59
17362;BME280;8798;51.938;4.348;2023-01-26T08:26:04;103104.69;;;5.98;91.75
17362;BME280;8798;51.938;4.348;2023-01-26T08:28:33;103100.25;;;5.97;91.79
17362;BME280;8798;51.938;4.348;2023-01-26T08:31:07;103091.34;;;5.98;91.77
17362;BME280;8798;51.938;4.348;2023-01-26T08:33:37;103089.53;;;5.99;91.38
17362;BME280;8798;51.938;4.348;2023-01-26T08:36:07;103085.19;;;5.96;91.38
17362;BME280;8798;51.938;4.348;2023-01-26T08:38:37;103086.94;;;5.97;91.49
17362;BME280;8798;51.938;4.348;2023-01-26T08:41:04;103080.69;;;5.98;91.42
17362;BME280;8798;51.938;4.348;2023-01-26T08:43:32;103089.44;;;6.00;91.66
17362;BME280;8798;51.938;4.348;2023-01-26T08:46:01;103088.53;;;6.01;91.60
17362;BME280;8798;51.938;4.348;2023-01-26T08:48:30;103099.94;;;6.05;92.47
17362;BME280;8798;51.938;4.348;2023-01-26T08:50:59;103097.22;;;6.07;92.35
17362;BME280;8798;51.938;4.348;2023-01-26T08:53:29;103106.03;;;6.09;92.32
17362;BME280;8798;51.938;4.348;2023-01-26T08:56:00;103114.78;;;6.11;92.00
17362;BME280;8798;51.938;4.348;2023-01-26T08:58:28;103109.34;;;6.14;92.07
17362;BME280;8798;51.938;4.348;2023-01-26T09:00:56;103116.34;;;6.16;92.37
17362;BME280;8798;51.938;4.348;2023-01-26T09:03:24;103132.22;;;6.19;91.69
17362;BME280;8798;51.938;4.348;2023-01-26T09:05:58;103131.28;;;6.20;92.00
17362;BME280;8798;51.938;4.348;2023-01-26T09:08:27;103138.28;;;6.23;92.11
17362;BME280;8798;51.938;4.348;2023-01-26T09:10:55;103146.19;;;6.26;91.84
17362;BME280;8798;51.938;4.348;2023-01-26T09:13:22;103171.66;;;6.33;91.46
17362;BME280;8798;51.938;4.348;2023-01-26T09:15:51;103209.44;;;6.44;91.58
17362;BME280;8798;51.938;4.348;2023-01-26T09:18:18;103243.75;;;6.54;91.38
17362;BME280;8798;51.938;4.348;2023-01-26T09:20:46;103262.25;;;6.58;91.84
17362;BME280;8798;51.938;4.348;2023-01-26T09:23:16;103272.78;;;6.61;92.48
17362;BME280;8798;51.938;4.348;2023-01-26T09:25:44;103288.63;;;6.66;92.21
17362;BME280;8798;51.938;4.348;2023-01-26T09:28:12;103314.06;;;6.75;92.19
17362;BME280;8798;51.938;4.348;2023-01-26T09:30:40;103340.38;;;6.84;91.98
17362;BME280;8798;51.938;4.348;2023-01-26T09:33:07;103370.31;;;6.92;92.72
17362;BME280;8798;51.938;4.348;2023-01-26T09:35:35;103380.78;;;6.97;92.54
17362;BME280;8798;51.938;4.348;2023-01-26T09:38:03;103368.38;;;6.96;92.42
17362;BME280;8798;51.938;4.348;2023-01-26T09:40:36;103356.88;;;6.94;91.41
17362;BME280;8798;51.938;4.348;2023-01-26T09:43:22;103345.38;;;6.92;91.69
17362;BME280;8798;51.938;4.348;2023-01-26T09:45:59;103324.97;;;6.91;91.50
17362;BME280;8798;51.938;4.348;2023-01-26T09:48:36;103321.44;;;6.90;92.58
17362;BME280;8798;51.938;4.348;2023-01-26T09:51:09;103318.75;;;6.90;92.55
17362;BME280;8798;51.938;4.348;2023-01-26T09:53:43;103315.09;;;6.93;92.25
17362;BME280;8798;51.938;4.348;2023-01-26T09:56:19;103311.47;;;6.94;92.48
17362;BME280;8798;51.938;4.348;2023-01-26T09:58:52;103310.53;;;6.95;92.59
17362;BME280;8798;51.938;4.348;2023-01-26T10:01:27;103314.94;;;6.96;92.27
17362;BME280;8798;51.938;4.348;2023-01-26T10:04:02;103317.47;;;6.99;91.95
17362;BME280;8798;51.938;4.348;2023-01-26T10:06:31;103327.09;;;7.03;92.64
17362;BME280;8798;51.938;4.348;2023-01-26T10:09:04;103341.13;;;7.08;92.87
17362;BME280;8798;51.938;4.348;2023-01-26T10:11:38;103352.63;;;7.10;91.84
17362;BME280;8798;51.938;4.348;2023-01-26T10:14:11;103359.56;;;7.14;92.22
17362;BME280;8798;51.938;4.348;2023-01-26T10:16:42;103362.13;;;7.17;92.89
17362;BME280;8798;51.938;4.348;2023-01-26T10:19:15;103357.56;;;7.19;92.53
17362;BME280;8798;51.938;4.348;2023-01-26T10:21:46;103365.47;;;7.22;91.85
17362;BME280;8798;51.938;4.348;2023-01-26T10:24:20;103376.06;;;7.24;92.86
17362;BME280;8798;51.938;4.348;2023-01-26T10:26:52;103380.41;;;7.26;91.97
17362;BME280;8798;51.938;4.348;2023-01-26T10:29:23;103374.94;;;7.29;92.25
17362;BME280;8798;51.938;4.348;2023-01-26T10:31:51;103398.78;;;7.34;93.03
17362;BME280;8798;51.938;4.348;2023-01-26T10:34:22;103401.34;;;7.37;92.06
17362;BME280;8798;51.938;4.348;2023-01-26T10:36:57;103398.69;;;7.37;92.54
17362;BME280;8798;51.938;4.348;2023-01-26T10:39:28;103392.31;;;7.40;92.98
17362;BME280;8798;51.938;4.348;2023-01-26T10:41:59;103398.44;;;7.42;92.52
17362;BME280;8798;51.938;4.348;2023-01-26T10:44:31;103400.16;;;7.44;92.33
17362;BME280;8798;51.938;4.348;2023-01-26T10:47:05;103395.66;;;7.45;92.50
17362;BME280;8798;51.938;4.348;2023-01-26T10:49:33;103406.06;;;7.51;92.21
17362;BME280;8798;51.938;4.348;2023-01-26T10:52:07;103406.06;;;7.51;92.41
17362;BME280;8798;51.938;4.348;2023-01-26T10:54:36;103401.53;;;7.53;92.25
17362;BME280;8798;51.938;4.348;2023-01-26T10:57:15;103398.81;;;7.54;93.01
17362;BME280;8798;51.938;4.348;2023-01-26T10:59:49;103406.72;;;7.56;93.04
17362;BME280;8798;51.938;4.348;2023-01-26T11:02:21;103425.19;;;7.62;92.36
17362;BME280;8798;51.938;4.348;2023-01-26T11:05:13;103457.75;;;7.72;92.35
17362;BME280;8798;51.938;4.348;2023-01-26T11:07:42;103495.59;;;7.83;92.07
17362;BME280;8798;51.938;4.348;2023-01-26T11:10:20;103529.94;;;7.94;92.17
17362;BME280;8798;51.938;4.348;2023-01-26T11:12:50;103581.09;;;8.07;92.28
17362;BME280;8798;51.938;4.348;2023-01-26T11:15:20;103604.81;;;8.16;91.99
17362;BME280;8798;51.938;4.348;2023-01-26T11:17:53;103622.41;;;8.22;92.41
17362;BME280;8798;51.938;4.348;2023-01-26T11:20:39;103635.50;;;8.28;92.39
17362;BME280;8798;51.938;4.348;2023-01-26T11:23:14;103612.41;;;8.25;92.34
17362;BME280;8798;51.938;4.348;2023-01-26T11:25:58;103584.13;;;8.19;92.73
17362;BME280;8798;51.938;4.348;2023-01-26T11:28:41;103538.00;;;8.13;92.64
17362;BME280;8798;51.938;4.348;2023-01-26T11:31:20;103518.59;;;8.08;92.57
17362;BME280;8798;51.938;4.348;2023-01-26T11:34:05;103482.22;;;8.04;91.99
17362;BME280;8798;51.938;4.348;2023-01-26T11:36:46;103465.34;;;8.02;92.09
17362;BME280;8798;51.938;4.348;2023-01-26T11:39:21;103469.59;;;8.06;92.81
17362;BME280;8798;51.938;4.348;2023-01-26T11:42:03;103498.69;;;8.13;92.46
17362;BME280;8798;51.938;4.348;2023-01-26T11:44:46;103533.91;;;8.25;92.27
17362;BME280;8798;51.938;4.348;2023-01-26T11:47:30;103568.31;;;8.34;92.69
17362;BME280;8798;51.938;4.348;2023-01-26T11:50:13;103580.56;;;8.39;92.60
17362;BME280;8798;51.938;4.348;2023-01-26T11:52:50;103579.56;;;8.42;92.73
17362;BME280;8798;51.938;4.348;2023-01-26T11:55:29;103581.22;;;8.45;92.22
17362;BME280;8798;51.938;4.348;2023-01-26T11:58:11;103571.31;;;8.47;92.82
17362;BME280;8798;51.938;4.348;2023-01-26T12:00:47;103561.56;;;8.46;92.59
17362;BME280;8798;51.938;4.348;2023-01-26T12:03:19;103554.38;;;8.46;92.73
17362;BME280;8798;51.938;4.348;2023-01-26T12:05:52;103547.22;;;8.47;92.55
17362;BME280;8798;51.938;4.348;2023-01-26T12:08:22;103552.41;;;8.50;92.74
17362;BME280;8798;51.938;4.348;2023-01-26T12:10:59;103557.56;;;8.54;92.63
17362;BME280;8798;51.938;4.348;2023-01-26T12:13:54;103545.13;;;8.53;92.16
17362;BME280;8798;51.938;4.348;2023-01-26T12:16:31;103541.50;;;8.54;92.70
17362;BME280;8798;51.938;4.348;2023-01-26T12:19:08;103541.34;;;8.57;92.16
17362;BME280;8798;51.938;4.348;2023-01-26T12:21:42;103538.66;;;8.57;92.46
17362;BME280;8798;51.938;4.348;2023-01-26T12:24:16;103514.66;;;8.56;92.04
17362;BME280;8798;51.938;4.348;2023-01-26T12:27:12;103480.03;;;8.51;92.90
17362;BME280;8798;51.938;4.348;2023-01-26T12:29:47;103470.13;;;8.53;92.62
17362;BME280;8798;51.938;4.348;2023-01-26T12:32:18;103479.72;;;8.57;92.42
17362;BME280;8798;51.938;4.348;2023-01-26T12:34:48;103500.88;;;8.64;92.05
17362;BME280;8798;51.938;4.348;2023-01-26T12:37:36;103488.50;;;8.61;92.31
17362;BME280;8798;51.938;4.348;2023-01-26T12:40:17;103480.47;;;8.61;92.22
17362;BME280;8798;51.938;4.348;2023-01-26T12:42:55;103467.06;;;8.61;92.00
17362;BME280;8798;51.938;4.348;2023-01-26T12:45:28;103446.66;;;8.58;92.36
17362;BME280;8798;51.938;4.348;2023-01-26T12:48:06;103415.66;;;8.53;92.00
17362;BME280;8798;51.938;4.348;2023-01-26T12:50:41;103392.56;;;8.50;92.67
17362;BME280;8798;51.938;4.348;2023-01-26T12:53:13;103366.03;;;8.46;92.46
17362;BME280;8798;51.938;4.348;2023-01-26T12:55:45;103357.09;;;8.45;92.29
17362;BME280;8798;51.938;4.348;2023-01-26T12:58:17;103373.81;;;8.50;91.96
17362;BME280;8798;51.938;4.348;2023-01-26T13:00:52;103408.13;;;8.61;92.33
17362;BME280;8798;51.938;4.348;2023-01-26T13:03:29;103453.09;;;8.73;92.14
17362;BME280;8798;51.938;4.348;2023-01-26T13:06:00;103485.66;;;8.83;92.50
17362;BME280;8798;51.938;4.348;2023-01-26T13:08:47;103503.19;;;8.90;92.26
17362;BME280;8798;51.938;4.348;2023-01-26T13:11:39;103493.31;;;8.91;92.31
17362;BME280;8798;51.938;4.348;2023-01-26T13:14:23;103479.94;;;8.91;92.10
17362;BME280;8798;51.938;4.348;2023-01-26T13:16:51;103468.34;;;8.90;92.26
17362;BME280;8798;51.938;4.348;2023-01-26T13:19:35;103462.97;;;8.90;92.22
17362;BME280;8798;51.938;4.348;2023-01-26T13:22:38;103444.34;;;8.87;92.23
17362;BME280;8798;51.938;4.348;2023-01-26T13:25:16;103416.75;;;8.85;92.22
17362;BME280;8798;51.938;4.348;2023-01-26T13:27:54;103402.59;;;8.83;92.28
17362;BME280;8798;51.938;4.348;2023-01-26T13:30:38;103388.28;;;8.82;92.16
17362;BME280;8798;51.938;4.348;2023-01-26T13:33:15;103367.88;;;8.80;92.46
17362;BME280;8798;51.938;4.348;2023-01-26T13:35:44;103354.63;;;8.77;92.30